Richland, Oregon
Current Conditions -  °F | °C
As of 5:53 PM on Friday 24 Oct 2014 (Local Time) from KBKE Reporting Station
Few Clouds Few Clouds  
Wind Chill: 46°   Ceiling: Unl
Heat Index: 49°   Visibility: 10mi
Dew Point: 44°   Wind: 7mph
Humidity: 83%   Direction: 80°E
Pressure: 30"   Gusts: NA
Location:  44.77°N, 117.17°W
Report Text: KBKE 250053Z AUTO 08006KT 10SM FEW033 09/07 A3000 RMK AO2 SLP160 T00940067
Loading
Personal Weather Stations






























Interactive Weather Map New forecast layout! Learn more

10-Day Weather Forecast

Advertisements
Track Severe Weather on mobile